sensor_id;sensor_type;location;lat;lon;timestamp;temperature;humidity
16674;DHT22;8450;52.654;10.326;2024-02-21T00:01:42;7.60;99.90
16674;DHT22;8450;52.654;10.326;2024-02-21T00:04:07;7.60;99.90
16674;DHT22;8450;52.654;10.326;2024-02-21T00:06:33;7.60;99.90
16674;DHT22;8450;52.654;10.326;2024-02-21T00:08:59;7.60;99.90
16674;DHT22;8450;52.654;10.326;2024-02-21T00:11:24;7.60;99.90
16674;DHT22;8450;52.654;10.326;2024-02-21T00:13:50;7.60;99.90
16674;DHT22;8450;52.654;10.326;2024-02-21T00:16:18;7.60;99.90
16674;DHT22;8450;52.654;10.326;2024-02-21T00:18:45;7.60;99.90
16674;DHT22;8450;52.654;10.326;2024-02-21T00:21:10;7.60;99.90
16674;DHT22;8450;52.654;10.326;2024-02-21T00:23:46;7.60;99.90
16674;DHT22;8450;52.654;10.326;2024-02-21T00:26:14;7.60;99.90
16674;DHT22;8450;52.654;10.326;2024-02-21T00:28:40;7.60;99.90
16674;DHT22;8450;52.654;10.326;2024-02-21T00:31:05;7.60;99.90
16674;DHT22;8450;52.654;10.326;2024-02-21T00:33:31;7.60;99.90
16674;DHT22;8450;52.654;10.326;2024-02-21T00:35:56;7.60;99.90
16674;DHT22;8450;52.654;10.326;2024-02-21T00:38:22;7.60;99.90
16674;DHT22;8450;52.654;10.326;2024-02-21T00:40:47;7.70;99.90
16674;DHT22;8450;52.654;10.326;2024-02-21T00:43:13;7.70;99.90
16674;DHT22;8450;52.654;10.326;2024-02-21T00:45:39;7.70;99.90
16674;DHT22;8450;52.654;10.326;2024-02-21T00:48:05;7.70;99.90
16674;DHT22;8450;52.654;10.326;2024-02-21T00:50:30;7.70;99.90
16674;DHT22;8450;52.654;10.326;2024-02-21T00:52:56;7.70;99.90
16674;DHT22;8450;52.654;10.326;2024-02-21T00:55:21;7.70;99.90
16674;DHT22;8450;52.654;10.326;2024-02-21T00:57:47;7.80;99.90
16674;DHT22;8450;52.654;10.326;2024-02-21T01:00:13;7.80;99.90
16674;DHT22;8450;52.654;10.326;2024-02-21T01:02:39;7.80;99.90
16674;DHT22;8450;52.654;10.326;2024-02-21T01:05:04;7.80;99.90
16674;DHT22;8450;52.654;10.326;2024-02-21T01:07:30;7.80;99.90
16674;DHT22;8450;52.654;10.326;2024-02-21T01:09:56;7.70;99.90
16674;DHT22;8450;52.654;10.326;2024-02-21T01:12:21;7.80;99.90
16674;DHT22;8450;52.654;10.326;2024-02-21T01:14:47;7.80;99.90
16674;DHT22;8450;52.654;10.326;2024-02-21T01:17:13;7.80;99.90
16674;DHT22;8450;52.654;10.326;2024-02-21T01:19:38;7.80;99.90
16674;DHT22;8450;52.654;10.326;2024-02-21T01:22:04;7.80;99.90
16674;DHT22;8450;52.654;10.326;2024-02-21T01:24:29;7.80;99.90
16674;DHT22;8450;52.654;10.326;2024-02-21T01:26:55;7.80;99.90
16674;DHT22;8450;52.654;10.326;2024-02-21T01:29:20;7.80;99.90
16674;DHT22;8450;52.654;10.326;2024-02-21T01:31:46;7.80;99.90
16674;DHT22;8450;52.654;10.326;2024-02-21T01:34:13;7.80;99.90
16674;DHT22;8450;52.654;10.326;2024-02-21T01:36:38;7.80;99.90
16674;DHT22;8450;52.654;10.326;2024-02-21T01:39:04;7.90;99.90
16674;DHT22;8450;52.654;10.326;2024-02-21T01:41:30;7.80;99.90
16674;DHT22;8450;52.654;10.326;2024-02-21T01:43:56;7.90;99.90
16674;DHT22;8450;52.654;10.326;2024-02-21T01:46:22;7.90;99.90
16674;DHT22;8450;52.654;10.326;2024-02-21T01:48:48;7.80;99.90
16674;DHT22;8450;52.654;10.326;2024-02-21T01:51:15;7.90;99.90
16674;DHT22;8450;52.654;10.326;2024-02-21T01:53:43;7.80;99.90
16674;DHT22;8450;52.654;10.326;2024-02-21T01:56:09;7.90;99.90
16674;DHT22;8450;52.654;10.326;2024-02-21T01:58:36;7.90;99.90
16674;DHT22;8450;52.654;10.326;2024-02-21T02:01:03;7.90;99.90
16674;DHT22;8450;52.654;10.326;2024-02-21T02:03:29;7.90;99.90
16674;DHT22;8450;52.654;10.326;2024-02-21T02:05:55;7.90;99.90
16674;DHT22;8450;52.654;10.326;2024-02-21T02:08:21;7.90;99.90
16674;DHT22;8450;52.654;10.326;2024-02-21T02:10:48;7.90;99.90
16674;DHT22;8450;52.654;10.326;2024-02-21T02:13:14;7.90;99.90
16674;DHT22;8450;52.654;10.326;2024-02-21T02:15:41;7.90;99.90
16674;DHT22;8450;52.654;10.326;2024-02-21T02:18:07;7.90;99.90
16674;DHT22;8450;52.654;10.326;2024-02-21T02:20:33;7.90;99.90
16674;DHT22;8450;52.654;10.326;2024-02-21T02:22:59;7.90;99.90
16674;DHT22;8450;52.654;10.326;2024-02-21T02:25:26;8.00;99.90
16674;DHT22;8450;52.654;10.326;2024-02-21T02:27:52;8.00;99.90
16674;DHT22;8450;52.654;10.326;2024-02-21T02:30:18;8.00;99.90
16674;DHT22;8450;52.654;10.326;2024-02-21T02:32:46;8.00;99.90
16674;DHT22;8450;52.654;10.326;2024-02-21T02:35:12;8.00;99.90
16674;DHT22;8450;52.654;10.326;2024-02-21T02:37:38;8.00;99.90
16674;DHT22;8450;52.654;10.326;2024-02-21T02:40:07;8.00;99.90
16674;DHT22;8450;52.654;10.326;2024-02-21T02:42:32;8.00;99.90
16674;DHT22;8450;52.654;10.326;2024-02-21T02:44:58;8.00;99.90
16674;DHT22;8450;52.654;10.326;2024-02-21T02:47:23;8.00;99.90
16674;DHT22;8450;52.654;10.326;2024-02-21T02:49:49;8.00;99.90
16674;DHT22;8450;52.654;10.326;2024-02-21T02:52:17;8.00;99.90
16674;DHT22;8450;52.654;10.326;2024-02-21T02:54:43;8.00;99.90
16674;DHT22;8450;52.654;10.326;2024-02-21T02:57:09;8.00;99.90
16674;DHT22;8450;52.654;10.326;2024-02-21T02:59:35;8.00;99.90
16674;DHT22;8450;52.654;10.326;2024-02-21T03:02:01;8.00;99.90
16674;DHT22;8450;52.654;10.326;2024-02-21T03:04:26;8.00;99.90
16674;DHT22;8450;52.654;10.326;2024-02-21T03:06:52;8.00;99.90
16674;DHT22;8450;52.654;10.326;2024-02-21T03:09:17;8.00;99.90
16674;DHT22;8450;52.654;10.326;2024-02-21T03:11:43;8.00;99.90
16674;DHT22;8450;52.654;10.326;2024-02-21T03:14:10;8.00;99.90
16674;DHT22;8450;52.654;10.326;2024-02-21T03:16:35;8.00;99.90
16674;DHT22;8450;52.654;10.326;2024-02-21T03:19:01;8.00;99.90
16674;DHT22;8450;52.654;10.326;2024-02-21T03:21:26;8.00;99.90
16674;DHT22;8450;52.654;10.326;2024-02-21T03:23:52;8.00;99.90
16674;DHT22;8450;52.654;10.326;2024-02-21T03:26:17;8.00;99.90
16674;DHT22;8450;52.654;10.326;2024-02-21T03:28:44;8.00;99.90
16674;DHT22;8450;52.654;10.326;2024-02-21T03:31:11;8.00;99.90
16674;DHT22;8450;52.654;10.326;2024-02-21T03:33:42;8.00;99.90
16674;DHT22;8450;52.654;10.326;2024-02-21T03:36:13;8.10;99.90
16674;DHT22;8450;52.654;10.326;2024-02-21T03:38:40;8.00;99.90
16674;DHT22;8450;52.654;10.326;2024-02-21T03:41:05;8.10;99.90
16674;DHT22;8450;52.654;10.326;2024-02-21T03:43:31;8.10;99.90
16674;DHT22;8450;52.654;10.326;2024-02-21T03:45:56;8.10;99.90
16674;DHT22;8450;52.654;10.326;2024-02-21T03:48:22;8.10;99.90
16674;DHT22;8450;52.654;10.326;2024-02-21T03:50:47;8.10;99.90
16674;DHT22;8450;52.654;10.326;2024-02-21T03:53:13;8.10;99.90
16674;DHT22;8450;52.654;10.326;2024-02-21T03:55:39;8.10;99.90
16674;DHT22;8450;52.654;10.326;2024-02-21T03:58:04;8.10;99.90
16674;DHT22;8450;52.654;10.326;2024-02-21T04:00:30;8.10;99.90
16674;DHT22;8450;52.654;10.326;2024-02-21T04:02:55;8.10;99.90
16674;DHT22;8450;52.654;10.326;2024-02-21T04:05:21;8.10;99.90
16674;DHT22;8450;52.654;10.326;2024-02-21T04:07:47;8.10;99.90
16674;DHT22;8450;52.654;10.326;2024-02-21T04:10:12;8.10;99.90
16674;DHT22;8450;52.654;10.326;2024-02-21T04:12:38;8.10;99.90
16674;DHT22;8450;52.654;10.326;2024-02-21T04:15:04;8.10;99.90
16674;DHT22;8450;52.654;10.326;2024-02-21T04:17:30;8.10;99.90
16674;DHT22;8450;52.654;10.326;2024-02-21T04:20:02;8.10;99.90
16674;DHT22;8450;52.654;10.326;2024-02-21T04:22:31;8.10;99.90
16674;DHT22;8450;52.654;10.326;2024-02-21T04:24:57;8.10;99.90
16674;DHT22;8450;52.654;10.326;2024-02-21T04:27:22;8.10;99.90
16674;DHT22;8450;52.654;10.326;2024-02-21T04:29:48;8.20;99.90
16674;DHT22;8450;52.654;10.326;2024-02-21T04:32:13;8.20;99.90
16674;DHT22;8450;52.654;10.326;2024-02-21T04:34:41;8.20;99.90
16674;DHT22;8450;52.654;10.326;2024-02-21T04:37:07;8.20;99.90
16674;DHT22;8450;52.654;10.326;2024-02-21T04:39:32;8.20;99.90
16674;DHT22;8450;52.654;10.326;2024-02-21T04:41:58;8.20;99.90
16674;DHT22;8450;52.654;10.326;2024-02-21T04:44:23;8.20;99.90
16674;DHT22;8450;52.654;10.326;2024-02-21T04:46:49;8.20;99.90
16674;DHT22;8450;52.654;10.326;2024-02-21T04:49:14;8.20;99.90
16674;DHT22;8450;52.654;10.326;2024-02-21T04:51:41;8.10;99.90
16674;DHT22;8450;52.654;10.326;2024-02-21T04:54:06;8.20;99.90
16674;DHT22;8450;52.654;10.326;2024-02-21T04:56:32;8.20;99.90
16674;DHT22;8450;52.654;10.326;2024-02-21T04:58:57;8.20;99.90
16674;DHT22;8450;52.654;10.326;2024-02-21T05:01:23;8.20;99.90
16674;DHT22;8450;52.654;10.326;2024-02-21T05:03:49;8.20;99.90
16674;DHT22;8450;52.654;10.326;2024-02-21T05:06:14;8.20;99.90
16674;DHT22;8450;52.654;10.326;2024-02-21T05:08:40;8.20;99.90
16674;DHT22;8450;52.654;10.326;2024-02-21T05:11:06;8.10;99.90
16674;DHT22;8450;52.654;10.326;2024-02-21T05:13:31;8.20;99.90
16674;DHT22;8450;52.654;10.326;2024-02-21T05:15:57;8.20;99.90
16674;DHT22;8450;52.654;10.326;2024-02-21T05:18:22;8.20;99.90
16674;DHT22;8450;52.654;10.326;2024-02-21T05:20:48;8.20;99.90
16674;DHT22;8450;52.654;10.326;2024-02-21T05:23:13;8.20;99.90
16674;DHT22;8450;52.654;10.326;2024-02-21T05:25:39;8.20;99.90
16674;DHT22;8450;52.654;10.326;2024-02-21T05:28:04;8.20;99.90
16674;DHT22;8450;52.654;10.326;2024-02-21T05:30:31;8.20;99.90
16674;DHT22;8450;52.654;10.326;2024-02-21T05:32:57;8.20;99.90
16674;DHT22;8450;52.654;10.326;2024-02-21T05:35:27;8.10;99.90
16674;DHT22;8450;52.654;10.326;2024-02-21T05:37:53;8.10;99.90
16674;DHT22;8450;52.654;10.326;2024-02-21T05:40:18;8.10;99.90
16674;DHT22;8450;52.654;10.326;2024-02-21T05:42:44;8.10;99.90
16674;DHT22;8450;52.654;10.326;2024-02-21T05:45:09;8.10;99.90
16674;DHT22;8450;52.654;10.326;2024-02-21T05:47:35;8.00;99.90
16674;DHT22;8450;52.654;10.326;2024-02-21T05:50:01;8.00;99.90
16674;DHT22;8450;52.654;10.326;2024-02-21T05:52:26;8.00;99.90
16674;DHT22;8450;52.654;10.326;2024-02-21T05:54:52;8.00;99.90
16674;DHT22;8450;52.654;10.326;2024-02-21T05:57:18;7.90;99.90
16674;DHT22;8450;52.654;10.326;2024-02-21T05:59:43;7.90;99.90
16674;DHT22;8450;52.654;10.326;2024-02-21T06:02:09;7.90;99.90
16674;DHT22;8450;52.654;10.326;2024-02-21T06:04:35;7.80;99.90
16674;DHT22;8450;52.654;10.326;2024-02-21T06:07:01;7.80;99.90
16674;DHT22;8450;52.654;10.326;2024-02-21T06:09:27;7.90;99.90
16674;DHT22;8450;52.654;10.326;2024-02-21T06:11:53;7.90;99.90
16674;DHT22;8450;52.654;10.326;2024-02-21T06:14:19;7.80;99.90
16674;DHT22;8450;52.654;10.326;2024-02-21T06:16:45;7.90;99.90
16674;DHT22;8450;52.654;10.326;2024-02-21T06:19:11;7.90;99.90
16674;DHT22;8450;52.654;10.326;2024-02-21T06:21:37;7.90;99.90
16674;DHT22;8450;52.654;10.326;2024-02-21T06:24:03;7.90;99.90
16674;DHT22;8450;52.654;10.326;2024-02-21T06:26:28;7.80;99.90
16674;DHT22;8450;52.654;10.326;2024-02-21T06:28:54;7.80;99.90
16674;DHT22;8450;52.654;10.326;2024-02-21T06:31:19;7.80;99.90
16674;DHT22;8450;52.654;10.326;2024-02-21T06:33:45;7.80;99.90
16674;DHT22;8450;52.654;10.326;2024-02-21T06:36:10;7.80;99.90
16674;DHT22;8450;52.654;10.326;2024-02-21T06:38:36;7.80;99.90
16674;DHT22;8450;52.654;10.326;2024-02-21T06:41:01;7.80;99.90
16674;DHT22;8450;52.654;10.326;2024-02-21T06:43:28;7.80;99.90
16674;DHT22;8450;52.654;10.326;2024-02-21T06:45:53;7.70;99.90
16674;DHT22;8450;52.654;10.326;2024-02-21T06:48:20;7.70;99.90
16674;DHT22;8450;52.654;10.326;2024-02-21T06:50:46;7.70;99.90
16674;DHT22;8450;52.654;10.326;2024-02-21T06:53:12;7.70;99.90
16674;DHT22;8450;52.654;10.326;2024-02-21T06:55:37;7.70;99.90
16674;DHT22;8450;52.654;10.326;2024-02-21T06:58:03;7.70;99.90
16674;DHT22;8450;52.654;10.326;2024-02-21T07:00:29;7.70;99.90
16674;DHT22;8450;52.654;10.326;2024-02-21T07:02:55;7.70;99.90
16674;DHT22;8450;52.654;10.326;2024-02-21T07:05:20;7.70;99.90
16674;DHT22;8450;52.654;10.326;2024-02-21T07:07:46;7.70;99.90
16674;DHT22;8450;52.654;10.326;2024-02-21T07:10:11;7.70;99.90
16674;DHT22;8450;52.654;10.326;2024-02-21T07:12:37;7.70;99.90
16674;DHT22;8450;52.654;10.326;2024-02-21T07:15:08;7.70;99.90
16674;DHT22;8450;52.654;10.326;2024-02-21T07:17:34;7.70;99.90
16674;DHT22;8450;52.654;10.326;2024-02-21T07:20:00;7.70;99.90
16674;DHT22;8450;52.654;10.326;2024-02-21T07:22:26;7.70;99.90
16674;DHT22;8450;52.654;10.326;2024-02-21T07:24:52;7.70;99.90
16674;DHT22;8450;52.654;10.326;2024-02-21T07:27:18;7.70;99.90
16674;DHT22;8450;52.654;10.326;2024-02-21T07:29:43;7.70;99.90
16674;DHT22;8450;52.654;10.326;2024-02-21T07:32:12;7.70;99.90
16674;DHT22;8450;52.654;10.326;2024-02-21T07:34:38;7.70;99.90
16674;DHT22;8450;52.654;10.326;2024-02-21T07:37:03;7.80;99.90
16674;DHT22;8450;52.654;10.326;2024-02-21T07:39:29;7.80;99.90
16674;DHT22;8450;52.654;10.326;2024-02-21T07:41:54;7.80;99.90
16674;DHT22;8450;52.654;10.326;2024-02-21T07:44:20;7.80;99.90
16674;DHT22;8450;52.654;10.326;2024-02-21T07:46:45;7.80;99.90
16674;DHT22;8450;52.654;10.326;2024-02-21T07:49:11;7.80;99.90
16674;DHT22;8450;52.654;10.326;2024-02-21T07:51:36;7.80;99.90
16674;DHT22;8450;52.654;10.326;2024-02-21T07:54:02;7.90;99.90
16674;DHT22;8450;52.654;10.326;2024-02-21T07:56:29;7.90;99.90
16674;DHT22;8450;52.654;10.326;2024-02-21T07:58:55;7.90;99.90
16674;DHT22;8450;52.654;10.326;2024-02-21T08:01:21;7.90;99.90
16674;DHT22;8450;52.654;10.326;2024-02-21T08:03:46;7.90;99.90
16674;DHT22;8450;52.654;10.326;2024-02-21T08:06:13;8.00;99.90
16674;DHT22;8450;52.654;10.326;2024-02-21T08:08:39;7.90;99.90
16674;DHT22;8450;52.654;10.326;2024-02-21T08:11:05;7.90;99.90
16674;DHT22;8450;52.654;10.326;2024-02-21T08:13:30;7.90;99.90
16674;DHT22;8450;52.654;10.326;2024-02-21T08:15:57;7.90;99.90
16674;DHT22;8450;52.654;10.326;2024-02-21T08:18:22;8.00;99.90
16674;DHT22;8450;52.654;10.326;2024-02-21T08:20:48;8.00;99.90
16674;DHT22;8450;52.654;10.326;2024-02-21T08:23:16;8.00;99.90
16674;DHT22;8450;52.654;10.326;2024-02-21T08:25:42;8.00;99.90
16674;DHT22;8450;52.654;10.326;2024-02-21T08:28:07;8.00;99.90
16674;DHT22;8450;52.654;10.326;2024-02-21T08:30:33;8.00;99.90
16674;DHT22;8450;52.654;10.326;2024-02-21T08:32:59;8.00;99.90
16674;DHT22;8450;52.654;10.326;2024-02-21T08:35:25;8.10;99.90
16674;DHT22;8450;52.654;10.326;2024-02-21T08:37:50;8.10;99.90
16674;DHT22;8450;52.654;10.326;2024-02-21T08:40:16;8.10;99.90
16674;DHT22;8450;52.654;10.326;2024-02-21T08:42:47;8.10;99.90
16674;DHT22;8450;52.654;10.326;2024-02-21T08:45:12;8.10;99.90
16674;DHT22;8450;52.654;10.326;2024-02-21T08:47:41;8.10;99.90
16674;DHT22;8450;52.654;10.326;2024-02-21T08:50:07;8.10;99.90
16674;DHT22;8450;52.654;10.326;2024-02-21T08:52:35;8.10;99.90
16674;DHT22;8450;52.654;10.326;2024-02-21T08:55:00;8.10;99.90
16674;DHT22;8450;52.654;10.326;2024-02-21T08:57:27;8.10;99.90
16674;DHT22;8450;52.654;10.326;2024-02-21T08:59:52;8.10;99.90
16674;DHT22;8450;52.654;10.326;2024-02-21T09:02:18;8.10;99.90
16674;DHT22;8450;52.654;10.326;2024-02-21T09:04:44;8.10;99.90
16674;DHT22;8450;52.654;10.326;2024-02-21T09:07:10;8.10;99.90
16674;DHT22;8450;52.654;10.326;2024-02-21T09:09:35;8.10;99.90
16674;DHT22;8450;52.654;10.326;2024-02-21T09:12:06;8.10;99.90
16674;DHT22;8450;52.654;10.326;2024-02-21T09:14:33;8.10;99.90
16674;DHT22;8450;52.654;10.326;2024-02-21T09:16:58;8.10;99.90
16674;DHT22;8450;52.654;10.326;2024-02-21T09:19:24;8.10;99.90
16674;DHT22;8450;52.654;10.326;2024-02-21T09:21:49;8.20;99.90
16674;DHT22;8450;52.654;10.326;2024-02-21T09:24:15;8.20;99.90
16674;DHT22;8450;52.654;10.326;2024-02-21T09:26:41;8.20;99.90
16674;DHT22;8450;52.654;10.326;2024-02-21T09:29:06;8.30;99.90
16674;DHT22;8450;52.654;10.326;2024-02-21T09:31:32;8.30;99.90
16674;DHT22;8450;52.654;10.326;2024-02-21T09:33:57;8.30;99.90
16674;DHT22;8450;52.654;10.326;2024-02-21T09:36:23;8.40;99.90
16674;DHT22;8450;52.654;10.326;2024-02-21T09:38:49;8.40;99.90
16674;DHT22;8450;52.654;10.326;2024-02-21T09:41:16;8.30;99.90
16674;DHT22;8450;52.654;10.326;2024-02-21T09:43:43;8.40;99.90
16674;DHT22;8450;52.654;10.326;2024-02-21T09:46:17;8.50;99.90
16674;DHT22;8450;52.654;10.326;2024-02-21T09:49:26;8.40;99.90
16674;DHT22;8450;52.654;10.326;2024-02-21T09:51:55;8.40;99.90
16674;DHT22;8450;52.654;10.326;2024-02-21T09:54:22;8.50;99.90
16674;DHT22;8450;52.654;10.326;2024-02-21T09:56:47;8.50;99.90
16674;DHT22;8450;52.654;10.326;2024-02-21T09:59:16;8.60;99.90
16674;DHT22;8450;52.654;10.326;2024-02-21T10:01:43;8.60;99.90
16674;DHT22;8450;52.654;10.326;2024-02-21T10:04:09;8.60;99.90
16674;DHT22;8450;52.654;10.326;2024-02-21T10:06:35;8.60;99.90
16674;DHT22;8450;52.654;10.326;2024-02-21T10:09:03;8.70;99.90
16674;DHT22;8450;52.654;10.326;2024-02-21T10:11:28;8.60;99.90
16674;DHT22;8450;52.654;10.326;2024-02-21T10:14:12;8.70;99.90
16674;DHT22;8450;52.654;10.326;2024-02-21T10:16:38;8.70;99.90
16674;DHT22;8450;52.654;10.326;2024-02-21T10:19:03;8.80;99.90
16674;DHT22;8450;52.654;10.326;2024-02-21T10:21:29;8.80;99.90
16674;DHT22;8450;52.654;10.326;2024-02-21T10:23:55;8.90;99.90
16674;DHT22;8450;52.654;10.326;2024-02-21T10:26:20;8.90;99.90
16674;DHT22;8450;52.654;10.326;2024-02-21T10:28:49;9.00;99.90
16674;DHT22;8450;52.654;10.326;2024-02-21T10:31:27;9.00;99.90
16674;DHT22;8450;52.654;10.326;2024-02-21T10:34:02;9.00;99.90
16674;DHT22;8450;52.654;10.326;2024-02-21T10:36:30;9.10;99.90
16674;DHT22;8450;52.654;10.326;2024-02-21T10:38:56;9.10;99.90
16674;DHT22;8450;52.654;10.326;2024-02-21T10:41:23;9.10;99.90
16674;DHT22;8450;52.654;10.326;2024-02-21T10:43:53;9.20;99.90
16674;DHT22;8450;52.654;10.326;2024-02-21T10:46:21;9.20;99.90
16674;DHT22;8450;52.654;10.326;2024-02-21T10:48:47;9.20;99.90
16674;DHT22;8450;52.654;10.326;2024-02-21T10:51:18;9.30;99.90
16674;DHT22;8450;52.654;10.326;2024-02-21T10:54:12;9.30;99.90
16674;DHT22;8450;52.654;10.326;2024-02-21T10:56:39;9.40;99.90
16674;DHT22;8450;52.654;10.326;2024-02-21T10:59:07;9.40;99.90
16674;DHT22;8450;52.654;10.326;2024-02-21T11:01:33;9.40;99.90
16674;DHT22;8450;52.654;10.326;2024-02-21T11:04:06;9.40;99.90
16674;DHT22;8450;52.654;10.326;2024-02-21T11:06:33;9.40;99.90
16674;DHT22;8450;52.654;10.326;2024-02-21T11:09:17;9.50;99.90
16674;DHT22;8450;52.654;10.326;2024-02-21T11:11:44;9.50;99.90
16674;DHT22;8450;52.654;10.326;2024-02-21T11:14:20;9.50;99.90
16674;DHT22;8450;52.654;10.326;2024-02-21T11:16:46;9.50;99.90
16674;DHT22;8450;52.654;10.326;2024-02-21T11:19:30;9.50;99.90
16674;DHT22;8450;52.654;10.326;2024-02-21T11:21:57;9.60;99.90
16674;DHT22;8450;52.654;10.326;2024-02-21T11:24:27;9.60;99.90
16674;DHT22;8450;52.654;10.326;2024-02-21T11:26:54;9.50;99.90
16674;DHT22;8450;52.654;10.326;2024-02-21T11:29:23;9.50;99.90
16674;DHT22;8450;52.654;10.326;2024-02-21T11:31:50;9.50;99.90
16674;DHT22;8450;52.654;10.326;2024-02-21T11:34:19;9.50;99.90
16674;DHT22;8450;52.654;10.326;2024-02-21T11:36:49;9.50;99.90
16674;DHT22;8450;52.654;10.326;2024-02-21T11:39:20;9.50;99.90
16674;DHT22;8450;52.654;10.326;2024-02-21T11:41:47;9.60;99.90
16674;DHT22;8450;52.654;10.326;2024-02-21T11:44:13;9.60;99.90
16674;DHT22;8450;52.654;10.326;2024-02-21T11:46:39;9.70;99.90
16674;DHT22;8450;52.654;10.326;2024-02-21T11:49:06;9.70;99.90
16674;DHT22;8450;52.654;10.326;2024-02-21T11:51:31;9.70;99.90
16674;DHT22;8450;52.654;10.326;2024-02-21T11:53:57;9.70;99.90
16674;DHT22;8450;52.654;10.326;2024-02-21T11:56:23;9.70;99.90
16674;DHT22;8450;52.654;10.326;2024-02-21T11:58:49;9.70;99.90
16674;DHT22;8450;52.654;10.326;2024-02-21T12:01:14;9.70;99.90
16674;DHT22;8450;52.654;10.326;2024-02-21T12:03:42;9.70;99.90
16674;DHT22;8450;52.654;10.326;2024-02-21T12:06:07;9.70;99.90
16674;DHT22;8450;52.654;10.326;2024-02-21T12:08:43;9.70;99.90
16674;DHT22;8450;52.654;10.326;2024-02-21T12:11:22;9.80;99.90
16674;DHT22;8450;52.654;10.326;2024-02-21T12:13:59;9.80;99.90
16674;DHT22;8450;52.654;10.326;2024-02-21T12:16:27;9.90;99.90
16674;DHT22;8450;52.654;10.326;2024-02-21T12:18:54;9.80;99.90
16674;DHT22;8450;52.654;10.326;2024-02-21T12:21:23;9.80;99.90
16674;DHT22;8450;52.654;10.326;2024-02-21T12:23:48;9.80;99.90
16674;DHT22;8450;52.654;10.326;2024-02-21T12:26:14;9.80;99.90
16674;DHT22;8450;52.654;10.326;2024-02-21T12:28:39;9.80;99.90
16674;DHT22;8450;52.654;10.326;2024-02-21T12:31:05;9.80;99.90
16674;DHT22;8450;52.654;10.326;2024-02-21T12:33:31;9.90;99.90
16674;DHT22;8450;52.654;10.326;2024-02-21T12:35:57;9.90;99.90
16674;DHT22;8450;52.654;10.326;2024-02-21T12:38:22;9.90;99.90
16674;DHT22;8450;52.654;10.326;2024-02-21T12:40:48;9.90;99.90
16674;DHT22;8450;52.654;10.326;2024-02-21T12:43:13;9.90;99.90
16674;DHT22;8450;52.654;10.326;2024-02-21T12:45:39;9.90;99.90
16674;DHT22;8450;52.654;10.326;2024-02-21T12:48:04;10.00;99.90
16674;DHT22;8450;52.654;10.326;2024-02-21T12:50:30;10.00;99.90
16674;DHT22;8450;52.654;10.326;2024-02-21T12:52:57;10.00;99.90
16674;DHT22;8450;52.654;10.326;2024-02-21T12:55:23;10.10;99.90
16674;DHT22;8450;52.654;10.326;2024-02-21T12:57:49;10.10;99.90
16674;DHT22;8450;52.654;10.326;2024-02-21T13:00:15;10.10;99.90
16674;DHT22;8450;52.654;10.326;2024-02-21T13:02:40;10.10;99.90
16674;DHT22;8450;52.654;10.326;2024-02-21T13:05:06;10.10;99.90
16674;DHT22;8450;52.654;10.326;2024-02-21T13:07:33;10.10;99.90
16674;DHT22;8450;52.654;10.326;2024-02-21T13:09:58;10.10;99.90
16674;DHT22;8450;52.654;10.326;2024-02-21T13:12:25;10.00;99.90
16674;DHT22;8450;52.654;10.326;2024-02-21T13:14:51;10.00;99.90
16674;DHT22;8450;52.654;10.326;2024-02-21T13:17:17;10.00;99.90
16674;DHT22;8450;52.654;10.326;2024-02-21T13:19:42;10.10;99.90
16674;DHT22;8450;52.654;10.326;2024-02-21T13:22:08;10.10;99.90
16674;DHT22;8450;52.654;10.326;2024-02-21T13:24:34;10.20;99.90
16674;DHT22;8450;52.654;10.326;2024-02-21T13:26:59;10.20;99.90
16674;DHT22;8450;52.654;10.326;2024-02-21T13:29:25;10.30;99.90
16674;DHT22;8450;52.654;10.326;2024-02-21T13:31:50;10.30;99.90
16674;DHT22;8450;52.654;10.326;2024-02-21T13:34:16;10.30;99.90
16674;DHT22;8450;52.654;10.326;2024-02-21T13:36:42;10.30;99.90
16674;DHT22;8450;52.654;10.326;2024-02-21T13:39:08;10.30;99.90
16674;DHT22;8450;52.654;10.326;2024-02-21T13:41:34;10.40;99.90
16674;DHT22;8450;52.654;10.326;2024-02-21T13:44:00;10.30;99.90
16674;DHT22;8450;52.654;10.326;2024-02-21T13:46:25;10.30;99.90
16674;DHT22;8450;52.654;10.326;2024-02-21T13:48:56;10.30;99.90
16674;DHT22;8450;52.654;10.326;2024-02-21T13:51:26;10.30;99.90
16674;DHT22;8450;52.654;10.326;2024-02-21T13:53:52;10.20;99.90
16674;DHT22;8450;52.654;10.326;2024-02-21T13:56:17;10.20;99.90
16674;DHT22;8450;52.654;10.326;2024-02-21T13:58:44;10.10;99.90
16674;DHT22;8450;52.654;10.326;2024-02-21T14:01:09;10.10;99.90
16674;DHT22;8450;52.654;10.326;2024-02-21T14:03:35;10.10;99.90
16674;DHT22;8450;52.654;10.326;2024-02-21T14:06:00;10.10;99.90
16674;DHT22;8450;52.654;10.326;2024-02-21T14:08:26;10.10;99.90
16674;DHT22;8450;52.654;10.326;2024-02-21T14:10:51;10.10;99.90
16674;DHT22;8450;52.654;10.326;2024-02-21T14:13:17;10.00;99.90
16674;DHT22;8450;52.654;10.326;2024-02-21T14:15:44;10.10;99.90
16674;DHT22;8450;52.654;10.326;2024-02-21T14:18:11;10.10;99.90
16674;DHT22;8450;52.654;10.326;2024-02-21T14:20:39;10.10;99.90
16674;DHT22;8450;52.654;10.326;2024-02-21T14:23:04;10.10;99.90
16674;DHT22;8450;52.654;10.326;2024-02-21T14:25:30;10.10;99.90
16674;DHT22;8450;52.654;10.326;2024-02-21T14:27:55;10.10;99.90
16674;DHT22;8450;52.654;10.326;2024-02-21T14:30:21;10.10;99.90
16674;DHT22;8450;52.654;10.326;2024-02-21T14:32:46;10.10;99.90
16674;DHT22;8450;52.654;10.326;2024-02-21T14:35:12;10.10;99.90
16674;DHT22;8450;52.654;10.326;2024-02-21T14:37:38;10.10;99.90
16674;DHT22;8450;52.654;10.326;2024-02-21T14:40:03;10.10;99.90
16674;DHT22;8450;52.654;10.326;2024-02-21T14:42:29;10.10;99.90
16674;DHT22;8450;52.654;10.326;2024-02-21T14:44:55;10.00;99.90
16674;DHT22;8450;52.654;10.326;2024-02-21T14:47:30;10.00;99.90
16674;DHT22;8450;52.654;10.326;2024-02-21T14:49:56;10.00;99.90
16674;DHT22;8450;52.654;10.326;2024-02-21T14:52:21;10.00;99.90
16674;DHT22;8450;52.654;10.326;2024-02-21T14:54:47;10.00;99.90
16674;DHT22;8450;52.654;10.326;2024-02-21T14:57:17;10.00;99.90
16674;DHT22;8450;52.654;10.326;2024-02-21T14:59:43;10.00;99.90
16674;DHT22;8450;52.654;10.326;2024-02-21T15:02:08;9.90;99.90
16674;DHT22;8450;52.654;10.326;2024-02-21T15:04:35;9.90;99.90
16674;DHT22;8450;52.654;10.326;2024-02-21T15:07:01;9.90;99.90
16674;DHT22;8450;52.654;10.326;2024-02-21T15:09:27;9.80;99.90
16674;DHT22;8450;52.654;10.326;2024-02-21T15:11:53;9.80;99.90
16674;DHT22;8450;52.654;10.326;2024-02-21T15:14:19;9.80;99.90
16674;DHT22;8450;52.654;10.326;2024-02-21T15:16:45;9.70;99.90
16674;DHT22;8450;52.654;10.326;2024-02-21T15:19:11;9.70;99.90
16674;DHT22;8450;52.654;10.326;2024-02-21T15:21:36;9.70;99.90
16674;DHT22;8450;52.654;10.326;2024-02-21T15:24:02;9.60;99.90
16674;DHT22;8450;52.654;10.326;2024-02-21T15:26:29;9.60;99.90
16674;DHT22;8450;52.654;10.326;2024-02-21T15:28:55;9.60;99.90
16674;DHT22;8450;52.654;10.326;2024-02-21T15:31:22;9.50;99.90
16674;DHT22;8450;52.654;10.326;2024-02-21T15:33:49;9.50;99.90
16674;DHT22;8450;52.654;10.326;2024-02-21T15:36:14;9.50;99.90
16674;DHT22;8450;52.654;10.326;2024-02-21T15:38:40;9.50;99.90
16674;DHT22;8450;52.654;10.326;2024-02-21T15:41:05;9.50;99.90